Time;durP1;ratioP1;P1;durP2;ratioP2;P2;SDS_P1;SDS_P2;PMS_P1;PMS_P2;Temp;Humidity;BMP_temperature;BMP_pressure;BME280_temperature;BME280_humidity;BME280_pressure;Samples;Min_cycle;Max_cycle;Signal;HPM_P1;HPM_P2
2022/05/05 00:02:14;;;;;;;12.38;5.30;;;6.90;99.90;;;;;;5026777;28;20128;-81
2022/05/05 00:04:39;;;;;;;12.90;5.30;;;6.90;99.90;;;;;;5045675;28;20044;-81
2022/05/05 00:07:05;;;;;;;11.85;5.30;;;6.90;99.90;;;;;;5035720;28;20102;-81
2022/05/05 00:09:31;;;;;;;13.27;5.65;;;6.90;99.90;;;;;;5035237;28;20411;-81
2022/05/05 00:14:42;;;;;;;12.18;5.78;;;6.90;99.90;;;;;;5071386;28;20058;-81
2022/05/05 00:17:09;;;;;;;12.45;4.95;;;6.90;99.90;;;;;;5073171;28;20044;-81
2022/05/05 00:19:37;;;;;;;12.05;4.93;;;7.00;99.90;;;;;;5067268;28;20406;-81
2022/05/05 00:22:05;;;;;;;15.40;4.75;;;6.90;99.90;;;;;;5053092;28;20111;-81
2022/05/05 00:24:31;;;;;;;15.60;5.32;;;6.90;99.90;;;;;;5035038;28;20047;-85
2022/05/05 00:26:57;;;;;;;13.02;5.32;;;7.00;99.90;;;;;;5035498;28;20645;-81
2022/05/05 00:29:23;;;;;;;11.48;5.88;;;6.90;99.90;;;;;;5057988;28;20040;-82
2022/05/05 00:31:51;;;;;;;10.43;4.75;;;7.00;99.90;;;;;;5072935;28;20048;-81
2022/05/05 00:34:18;;;;;;;12.13;5.38;;;7.00;99.90;;;;;;5034249;28;20073;-81
2022/05/05 00:36:44;;;;;;;12.38;5.30;;;7.00;99.90;;;;;;5052775;28;20057;-81
2022/05/05 00:39:13;;;;;;;11.05;4.88;;;7.00;99.90;;;;;;5018335;28;20052;-81
2022/05/05 00:41:48;;;;;;;12.13;5.60;;;7.00;99.90;;;;;;5052553;28;20095;-82
2022/05/05 00:44:15;;;;;;;13.95;5.47;;;7.00;99.90;;;;;;5034585;28;20095;-82
2022/05/05 00:46:49;;;;;;;12.77;5.68;;;7.00;99.90;;;;;;5032304;28;20507;-80
2022/05/05 00:49:15;;;;;;;13.27;5.57;;;7.30;99.90;;;;;;5052346;28;20052;-81
2022/05/05 00:51:41;;;;;;;13.05;5.10;;;7.00;99.90;;;;;;5054522;28;20123;-81
2022/05/05 00:54:07;;;;;;;14.95;5.43;;;7.00;99.90;;;;;;5052496;28;20076;-81
2022/05/05 00:56:34;;;;;;;12.57;5.53;;;6.90;99.90;;;;;;5035183;28;20048;-82
2022/05/05 00:59:01;;;;;;;12.48;5.05;;;6.90;99.90;;;;;;5051673;28;20057;-82
2022/05/05 01:01:26;;;;;;;16.48;5.72;;;6.90;99.90;;;;;;5042878;28;20053;-81
2022/05/05 01:03:53;;;;;;;13.02;5.28;;;7.20;99.90;;;;;;5052543;28;20101;-81
2022/05/05 01:06:19;;;;;;;14.05;5.18;;;7.30;99.90;;;;;;5045948;28;20053;-81
2022/05/05 01:08:45;;;;;;;21.67;5.72;;;6.90;99.90;;;;;;5051293;28;20052;-82
2022/05/05 01:11:11;;;;;;;11.30;5.45;;;7.00;99.90;;;;;;5052463;28;20127;-81
2022/05/05 01:13:41;;;;;;;11.40;5.63;;;6.90;99.90;;;;;;5036627;28;20136;-81
2022/05/05 01:16:09;;;;;;;14.45;6.32;;;7.00;99.90;;;;;;5023592;28;20056;-81
2022/05/05 01:18:35;;;;;;;15.02;6.13;;;7.00;99.90;;;;;;5038738;28;20091;-82
2022/05/05 01:21:01;;;;;;;15.00;5.85;;;7.00;99.90;;;;;;5038240;28;20107;-85
2022/05/05 01:23:27;;;;;;;13.55;6.22;;;7.00;99.90;;;;;;5035433;28;20507;-81
2022/05/05 01:28:44;;;;;;;13.05;5.40;;;7.10;99.90;;;;;;5036435;28;20053;-81
2022/05/05 01:31:10;;;;;;;12.25;5.78;;;7.30;99.90;;;;;;5018798;28;20053;-81
2022/05/05 01:33:35;;;;;;;13.63;7.20;;;7.10;99.90;;;;;;5055963;28;20526;-82
2022/05/05 01:36:02;;;;;;;12.75;5.60;;;7.20;99.90;;;;;;5038389;28;20135;-82
2022/05/05 01:38:36;;;;;;;14.10;5.95;;;7.10;99.90;;;;;;5037852;28;20075;-82
2022/05/05 01:41:12;;;;;;;15.73;6.03;;;7.10;99.90;;;;;;5056174;28;20059;-81
2022/05/05 01:43:41;;;;;;;13.88;6.05;;;7.10;99.90;;;;;;5038347;28;20532;-82
2022/05/05 01:46:07;;;;;;;10.77;5.70;;;7.10;99.90;;;;;;5023718;28;20422;-81
2022/05/05 01:48:34;;;;;;;11.60;6.13;;;7.10;99.90;;;;;;5074389;28;20052;-81
2022/05/05 01:51:00;;;;;;;12.82;6.00;;;7.10;99.90;;;;;;5075982;28;20406;-81
2022/05/05 01:53:26;;;;;;;15.23;5.90;;;7.10;99.90;;;;;;5067821;28;20079;-81
2022/05/05 01:55:52;;;;;;;12.40;6.25;;;7.10;99.90;;;;;;5055875;28;20048;-81
2022/05/05 01:58:19;;;;;;;16.23;5.95;;;7.00;99.90;;;;;;5055736;28;20406;-81
2022/05/05 02:00:45;;;;;;;12.32;5.85;;;7.10;99.90;;;;;;5037979;28;20494;-81
2022/05/05 02:03:13;;;;;;;16.08;6.53;;;7.00;99.90;;;;;;5037685;28;20083;-81
2022/05/05 02:05:41;;;;;;;11.38;6.40;;;7.00;99.90;;;;;;5057593;28;20067;-81
2022/05/05 02:08:07;;;;;;;13.15;6.63;;;7.00;99.90;;;;;;5075616;28;20123;-84
2022/05/05 02:10:32;;;;;;;15.93;7.07;;;6.90;99.90;;;;;;5038061;28;20538;-82
2022/05/05 02:12:58;;;;;;;16.13;6.65;;;6.90;99.90;;;;;;5040777;28;20047;-82
2022/05/05 02:15:24;;;;;;;16.55;7.05;;;6.90;99.90;;;;;;5075080;28;20044;-81
2022/05/05 02:17:50;;;;;;;12.95;6.93;;;6.90;99.90;;;;;;5075200;28;20106;-81
2022/05/05 02:20:16;;;;;;;14.38;6.93;;;6.80;99.90;;;;;;5055642;28;20398;-83
2022/05/05 02:22:42;;;;;;;14.52;6.10;;;6.70;99.90;;;;;;5074125;28;20044;-82
2022/05/05 02:25:08;;;;;;;14.00;6.82;;;6.70;99.90;;;;;;5047782;28;20045;-82
2022/05/05 02:27:51;;;;;;;15.18;7.50;;;6.60;99.90;;;;;;5044707;28;20375;-81
2022/05/05 02:30:18;;;;;;;14.52;6.82;;;6.60;99.90;;;;;;5057340;28;20101;-81
2022/05/05 02:32:44;;;;;;;13.27;7.43;;;6.50;99.90;;;;;;5057270;28;20033;-81
2022/05/05 02:35:11;;;;;;;14.73;7.53;;;6.50;99.90;;;;;;5068600;28;20490;-82
2022/05/05 02:40:21;;;;;;;15.90;7.60;;;6.40;99.90;;;;;;5036361;28;20060;-81
2022/05/05 02:42:47;;;;;;;12.30;6.80;;;6.40;99.90;;;;;;5037247;28;20041;-83
2022/05/05 02:45:12;;;;;;;19.85;7.78;;;6.30;99.90;;;;;;5054757;28;20094;-81
2022/05/05 02:47:38;;;;;;;15.75;7.95;;;6.30;99.90;;;;;;5036596;28;20134;-80
2022/05/05 02:50:04;;;;;;;12.75;8.20;;;6.20;99.90;;;;;;5054887;28;20564;-83
2022/05/05 02:52:33;;;;;;;20.67;8.02;;;6.20;99.90;;;;;;5018826;28;20076;-80
2022/05/05 02:55:00;;;;;;;19.20;8.27;;;6.20;99.90;;;;;;5017307;28;20137;-81
2022/05/05 02:57:26;;;;;;;17.50;8.63;;;6.10;99.90;;;;;;5028897;28;20058;-80
2022/05/05 02:59:55;;;;;;;14.25;7.63;;;6.10;99.90;;;;;;5034440;28;20454;-82
2022/05/05 03:02:23;;;;;;;15.60;7.97;;;6.10;99.90;;;;;;5017093;28;20053;-82
2022/05/05 03:04:50;;;;;;;18.52;8.50;;;6.00;99.90;;;;;;5034722;28;20053;-81
2022/05/05 03:07:16;;;;;;;18.73;8.57;;;6.30;99.90;;;;;;5026373;28;20433;-81
2022/05/05 03:09:42;;;;;;;19.50;8.73;;;5.90;99.90;;;;;;5054259;28;20037;-81
2022/05/05 03:12:09;;;;;;;12.27;8.60;;;5.90;99.90;;;;;;5030903;28;20406;-81
2022/05/05 03:14:35;;;;;;;18.90;9.60;;;5.90;99.90;;;;;;5046202;28;20615;-81
2022/05/05 03:17:01;;;;;;;17.02;9.45;;;5.80;99.90;;;;;;5049809;28;20114;-80
2022/05/05 03:19:26;;;;;;;18.60;9.05;;;5.80;99.90;;;;;;5016799;28;20042;-81
2022/05/05 03:21:53;;;;;;;17.00;9.63;;;5.70;99.90;;;;;;5001821;28;20049;-81
2022/05/05 03:24:19;;;;;;;16.02;9.35;;;5.80;99.90;;;;;;5054407;28;20056;-81
2022/05/05 03:26:45;;;;;;;21.45;9.98;;;5.70;99.90;;;;;;5036560;28;20053;-81
2022/05/05 03:29:10;;;;;;;20.42;9.82;;;5.70;99.90;;;;;;5036995;28;20505;-81
2022/05/05 03:31:36;;;;;;;19.35;9.18;;;5.60;99.90;;;;;;5019281;28;20072;-81
2022/05/05 03:34:03;;;;;;;17.90;9.63;;;5.60;99.90;;;;;;5054200;28;20083;-80
2022/05/05 03:36:28;;;;;;;17.85;9.98;;;5.60;99.90;;;;;;5053324;28;20052;-81
2022/05/05 03:38:54;;;;;;;20.38;9.68;;;5.60;99.90;;;;;;5054440;28;20048;-81
2022/05/05 03:41:21;;;;;;;19.75;10.15;;;5.60;99.90;;;;;;5055997;28;20432;-81
2022/05/05 03:43:47;;;;;;;18.27;10.93;;;5.60;99.90;;;;;;5066010;28;20123;-81
2022/05/05 03:46:13;;;;;;;16.30;9.68;;;5.50;99.90;;;;;;5053435;28;20506;-82
2022/05/05 03:48:39;;;;;;;21.60;10.60;;;5.60;99.90;;;;;;5035523;28;20057;-81
2022/05/05 03:51:07;;;;;;;16.95;9.90;;;5.60;99.90;;;;;;5035203;28;20060;-81
2022/05/05 03:53:33;;;;;;;21.40;10.35;;;5.60;99.90;;;;;;5036331;28;20053;-85
2022/05/05 03:56:04;;;;;;;20.33;10.80;;;5.60;99.90;;;;;;5018979;28;20063;-81
2022/05/05 03:58:30;;;;;;;20.45;10.88;;;5.60;99.90;;;;;;5053295;28;20049;-82
2022/05/05 04:00:56;;;;;;;21.48;10.27;;;5.60;99.90;;;;;;5070074;28;20568;-81
2022/05/05 04:03:30;;;;;;;19.40;11.10;;;5.60;99.90;;;;;;5072695;28;20044;-81
2022/05/05 04:05:58;;;;;;;21.48;11.32;;;5.50;99.90;;;;;;5072135;28;20049;-81
2022/05/05 04:08:24;;;;;;;21.65;11.00;;;5.50;99.90;;;;;;5057913;28;20053;-81
2022/05/05 04:10:50;;;;;;;20.55;10.75;;;5.50;99.90;;;;;;5053047;28;20083;-81
2022/05/05 04:13:16;;;;;;;19.70;10.73;;;5.50;99.90;;;;;;5053047;28;20084;-81
2022/05/05 04:15:42;;;;;;;18.98;10.82;;;5.50;99.90;;;;;;5035277;28;20449;-81
2022/05/05 04:18:07;;;;;;;20.13;10.13;;;5.50;99.90;;;;;;5035806;28;20064;-82
2022/05/05 04:20:33;;;;;;;14.13;9.95;;;5.40;99.90;;;;;;5053220;28;20041;-81
2022/05/05 04:22:59;;;;;;;20.95;10.50;;;5.40;99.90;;;;;;5041805;28;20506;-81
2022/05/05 04:25:24;;;;;;;17.08;10.65;;;5.30;99.90;;;;;;5033021;28;20491;-81
2022/05/05 04:27:50;;;;;;;16.20;9.73;;;5.30;99.90;;;;;;5033038;28;20053;-81
2022/05/05 04:30:17;;;;;;;21.73;10.82;;;5.30;99.90;;;;;;5035571;28;20041;-81
2022/05/05 04:32:44;;;;;;;19.05;10.82;;;5.20;99.90;;;;;;5052873;28;20080;-84
2022/05/05 04:35:10;;;;;;;20.95;11.23;;;5.50;99.90;;;;;;5034956;28;20126;-82
2022/05/05 04:37:36;;;;;;;20.33;10.43;;;5.20;99.90;;;;;;5046510;28;20127;-87
2022/05/05 04:40:02;;;;;;;18.70;11.40;;;5.20;99.90;;;;;;5072433;28;20131;-81
2022/05/05 04:42:28;;;;;;;16.75;10.07;;;5.10;99.90;;;;;;5071577;28;20063;-81
2022/05/05 04:44:54;;;;;;;22.67;11.13;;;5.10;99.90;;;;;;5053446;28;20049;-81
2022/05/05 04:47:22;;;;;;;20.60;10.73;;;5.10;99.90;;;;;;5051875;28;20156;-81
2022/05/05 04:49:48;;;;;;;21.58;10.93;;;5.10;99.90;;;;;;5033784;28;20053;-81
2022/05/05 04:52:14;;;;;;;17.80;10.63;;;5.10;99.90;;;;;;5052654;28;20087;-81
2022/05/05 04:54:40;;;;;;;20.45;11.25;;;5.60;99.90;;;;;;5065804;28;20040;-81
2022/05/05 04:57:06;;;;;;;21.52;11.68;;;5.60;99.90;;;;;;5047304;28;20084;-81
2022/05/05 04:59:31;;;;;;;18.95;11.88;;;5.00;99.90;;;;;;5051367;28;20380;-86
2022/05/05 05:01:57;;;;;;;25.20;12.07;;;5.10;99.90;;;;;;5072389;28;20134;-81
2022/05/05 05:04:23;;;;;;;21.85;12.40;;;5.10;99.90;;;;;;5035166;28;20080;-81
2022/05/05 05:06:48;;;;;;;20.20;12.23;;;5.10;99.90;;;;;;5052527;28;20052;-82
2022/05/05 05:09:14;;;;;;;26.98;13.40;;;5.10;99.90;;;;;;5052344;28;20044;-82
2022/05/05 05:11:40;;;;;;;18.98;12.63;;;5.20;99.90;;;;;;5050926;28;20472;-81
2022/05/05 05:14:05;;;;;;;23.50;12.25;;;5.50;99.90;;;;;;5049471;28;20060;-82
2022/05/05 05:16:31;;;;;;;22.10;13.70;;;5.40;99.90;;;;;;5073358;28;20091;-81
2022/05/05 05:18:58;;;;;;;17.15;10.88;;;5.50;99.90;;;;;;5062622;28;20053;-82
2022/05/05 05:21:24;;;;;;;23.77;12.07;;;5.70;99.90;;;;;;5034599;28;20057;-81
2022/05/05 05:23:49;;;;;;;24.92;13.18;;;6.00;99.90;;;;;;5052121;28;20063;-81
2022/05/05 05:26:15;;;;;;;21.80;12.73;;;6.10;99.90;;;;;;5052402;28;20061;-82
2022/05/05 05:28:42;;;;;;;20.25;11.57;;;6.60;99.90;;;;;;5037666;28;20501;-81
2022/05/05 05:31:08;;;;;;;21.10;12.23;;;6.50;99.90;;;;;;5054242;28;20051;-82
2022/05/05 05:33:33;;;;;;;22.85;12.98;;;6.70;99.90;;;;;;5054479;28;20049;-81
2022/05/05 05:35:59;;;;;;;22.40;12.07;;;6.90;99.90;;;;;;5053763;28;20088;-81
2022/05/05 05:38:25;;;;;;;25.70;12.30;;;7.10;99.90;;;;;;5072056;28;20052;-82
2022/05/05 05:40:51;;;;;;;21.23;12.25;;;7.20;99.90;;;;;;5054229;28;20482;-81
2022/05/05 05:43:17;;;;;;;19.42;12.50;;;7.50;99.90;;;;;;5054499;28;20484;-81
2022/05/05 05:45:43;;;;;;;21.52;12.85;;;7.40;99.90;;;;;;5070138;28;20051;-82
2022/05/05 05:48:09;;;;;;;20.42;11.52;;;7.50;99.90;;;;;;5071947;28;20143;-83
2022/05/05 05:50:36;;;;;;;18.48;11.38;;;7.50;99.90;;;;;;5042605;28;20049;-82
2022/05/05 05:53:02;;;;;;;21.30;12.57;;;7.60;99.90;;;;;;5034750;28;20048;-82
2022/05/05 05:55:28;;;;;;;21.67;12.35;;;7.70;99.90;;;;;;5034261;28;20371;-82
2022/05/05 05:57:54;;;;;;;20.60;12.65;;;7.70;99.90;;;;;;5034302;28;20111;-82
2022/05/05 06:00:19;;;;;;;23.00;12.43;;;7.80;99.90;;;;;;5052386;28;20537;-82
2022/05/05 06:05:49;;;;;;;20.10;11.23;;;8.10;99.90;;;;;;4955213;28;20563;-82
2022/05/05 06:08:17;;;;;;;17.98;10.65;;;8.10;99.90;;;;;;4955300;29;20117;-82
2022/05/05 06:10:43;;;;;;;22.45;10.73;;;8.30;99.90;;;;;;4955920;28;20126;-82
2022/05/05 06:13:09;;;;;;;18.42;10.75;;;8.40;99.90;;;;;;4955229;28;20517;-86
2022/05/05 06:15:35;;;;;;;23.70;10.32;;;8.60;99.90;;;;;;4939059;29;20062;-83
2022/05/05 06:18:00;;;;;;;19.67;10.90;;;8.60;99.90;;;;;;4939336;29;20109;-83
2022/05/05 06:20:26;;;;;;;22.25;10.23;;;8.70;99.90;;;;;;4938984;29;20047;-82
2022/05/05 06:22:52;;;;;;;16.88;9.82;;;8.90;99.90;;;;;;4939428;29;20086;-82
2022/05/05 06:25:20;;;;;;;19.98;10.82;;;9.00;99.90;;;;;;4955029;28;20055;-82
2022/05/05 06:27:46;;;;;;;18.83;9.88;;;9.30;99.90;;;;;;4955141;28;20047;-83
2022/05/05 06:30:13;;;;;;;16.25;9.82;;;10.20;99.90;;;;;;4954834;28;20129;-83
2022/05/05 06:32:39;;;;;;;22.08;10.05;;;10.30;99.90;;;;;;4939386;29;20120;-82
2022/05/05 06:35:06;;;;;;;19.58;9.85;;;10.40;99.90;;;;;;4938975;29;20059;-83
2022/05/05 06:37:31;;;;;;;16.05;9.35;;;10.50;99.90;;;;;;5027874;28;20081;-83
2022/05/05 06:39:57;;;;;;;16.63;10.05;;;10.50;99.90;;;;;;5036937;28;20130;-83
2022/05/05 06:42:23;;;;;;;18.98;10.07;;;10.50;99.90;;;;;;5055078;28;20475;-82
2022/05/05 06:44:48;;;;;;;18.48;9.27;;;10.60;99.90;;;;;;5054823;28;20080;-83
2022/05/05 06:47:14;;;;;;;17.08;9.15;;;10.60;99.90;;;;;;5037135;28;20406;-83
2022/05/05 06:49:40;;;;;;;19.58;10.10;;;10.70;99.90;;;;;;5037475;28;20102;-83
2022/05/05 06:52:06;;;;;;;18.40;9.20;;;10.80;99.90;;;;;;5055144;28;20045;-82
2022/05/05 06:54:32;;;;;;;20.70;9.95;;;10.90;99.90;;;;;;5037430;28;20101;-82
2022/05/05 06:56:58;;;;;;;17.10;10.05;;;11.00;99.90;;;;;;5055818;28;20137;-82
2022/05/05 06:59:24;;;;;;;22.85;9.82;;;11.20;99.90;;;;;;5057935;28;20404;-83
2022/05/05 07:01:53;;;;;;;18.00;9.73;;;11.40;99.90;;;;;;5056743;28;20044;-82
2022/05/05 07:07:11;;;;;;;13.98;8.25;;;12.00;99.90;;;;;;5058243;28;20470;-82
2022/05/05 07:12:21;;;;;;;15.68;7.80;;;13.10;99.90;;;;;;5040176;28;20093;-82
2022/05/05 07:14:47;;;;;;;17.50;7.72;;;13.70;99.90;;;;;;5057228;28;20048;-82
2022/05/05 07:17:13;;;;;;;15.73;7.45;;;14.00;99.90;;;;;;5058221;28;20079;-82
2022/05/05 07:19:39;;;;;;;15.52;6.40;;;14.30;99.90;;;;;;5057362;28;20087;-84
2022/05/05 07:22:06;;;;;;;14.27;6.30;;;14.40;99.90;;;;;;5056522;28;20379;-83
2022/05/05 07:24:32;;;;;;;14.65;6.70;;;14.50;99.90;;;;;;5056413;28;20045;-83
2022/05/05 07:27:02;;;;;;;13.30;6.13;;;14.50;99.90;;;;;;5056408;28;20056;-82
2022/05/05 07:29:28;;;;;;;12.85;6.28;;;14.60;99.90;;;;;;5039817;28;20056;-84
2022/05/05 07:31:54;;;;;;;13.23;6.00;;;14.70;99.90;;;;;;5056326;28;20490;-83
2022/05/05 07:34:20;;;;;;;15.07;5.80;;;14.90;99.90;;;;;;5037660;28;20076;-83
2022/05/05 07:36:46;;;;;;;15.05;5.53;;;15.40;99.90;;;;;;5055348;28;20110;-83
2022/05/05 07:39:12;;;;;;;12.40;5.40;;;15.80;98.90;;;;;;5054359;28;20044;-83
2022/05/05 07:41:39;;;;;;;11.18;4.78;;;15.80;97.30;;;;;;5054868;28;20057;-83
2022/05/05 07:44:06;;;;;;;13.40;5.40;;;16.00;96.10;;;;;;5054657;28;20041;-88
2022/05/05 07:46:36;;;;;;;15.38;5.68;;;16.60;90.80;;;;;;5036531;28;20116;-85
2022/05/05 07:49:04;;;;;;;11.70;4.78;;;17.80;82.10;;;;;;5052468;28;20132;-83
2022/05/05 07:51:34;;;;;;;16.15;5.93;;;19.00;69.70;;;;;;5036340;28;20186;-83
2022/05/05 07:56:45;;;;;;;10.75;4.93;;;20.60;60.50;;;;;;5053507;28;20049;-84
2022/05/05 07:59:11;;;;;;;13.05;5.40;;;21.40;56.70;;;;;;5053583;28;20041;-84
2022/05/05 08:01:37;;;;;;;11.65;4.97;;;21.80;55.30;;;;;;5053447;28;20127;-83
2022/05/05 08:04:04;;;;;;;14.02;4.70;;;22.00;53.60;;;;;;5035123;28;20207;-85
2022/05/05 08:06:30;;;;;;;9.70;4.30;;;22.20;52.40;;;;;;5053365;28;20056;-84
2022/05/05 08:08:56;;;;;;;9.77;4.88;;;21.90;51.80;;;;;;5052327;28;20049;-83
2022/05/05 08:11:22;;;;;;;11.25;4.47;;;21.50;52.50;;;;;;5035860;28;20487;-83
2022/05/05 08:13:49;;;;;;;10.77;4.60;;;21.20;52.00;;;;;;5035366;28;20491;-84
2022/05/05 08:16:16;;;;;;;11.65;4.75;;;21.20;52.00;;;;;;5053309;28;20057;-83
2022/05/05 08:18:42;;;;;;;13.10;4.65;;;21.10;51.90;;;;;;5053367;28;20498;-84
2022/05/05 08:21:11;;;;;;;7.80;4.53;;;21.10;52.50;;;;;;5035485;28;20041;-83
2022/05/05 08:23:37;;;;;;;9.35;4.68;;;21.20;51.80;;;;;;5034460;28;20491;-84
2022/05/05 08:28:48;;;;;;;9.70;4.72;;;21.80;50.60;;;;;;5035371;28;20501;-83
2022/05/05 08:31:14;;;;;;;10.20;5.10;;;21.80;50.80;;;;;;5035422;28;20045;-83
2022/05/05 08:33:40;;;;;;;8.00;4.75;;;21.80;50.30;;;;;;5035352;28;20045;-83
2022/05/05 08:36:06;;;;;;;8.85;4.80;;;22.20;50.20;;;;;;5035172;28;20410;-83
2022/05/05 08:38:33;;;;;;;10.13;4.40;;;22.70;49.70;;;;;;5052807;28;20040;-90
2022/05/05 08:40:59;;;;;;;10.65;5.40;;;23.20;48.70;;;;;;5051694;28;20044;-84
2022/05/05 08:43:25;;;;;;;9.38;4.20;;;23.30;47.60;;;;;;5035040;28;20052;-84
2022/05/05 08:45:53;;;;;;;9.90;4.88;;;23.50;47.10;;;;;;5035360;28;20045;-84
2022/05/05 08:48:19;;;;;;;7.18;4.75;;;23.60;46.50;;;;;;5021524;28;20093;-84
2022/05/05 08:50:51;;;;;;;8.30;4.93;;;23.80;45.90;;;;;;5032519;28;20045;-83
2022/05/05 08:53:23;;;;;;;8.18;4.70;;;23.80;46.40;;;;;;5015529;28;20053;-84
2022/05/05 08:55:49;;;;;;;14.23;4.85;;;23.90;47.20;;;;;;5032733;28;20053;-84
2022/05/05 08:58:16;;;;;;;5.78;4.47;;;23.80;46.40;;;;;;5032902;28;20498;-84
2022/05/05 09:00:43;;;;;;;10.05;5.65;;;23.70;46.50;;;;;;5032610;28;20050;-84
2022/05/05 09:03:10;;;;;;;8.70;5.63;;;23.70;46.90;;;;;;5001240;28;20571;-84
2022/05/05 09:05:45;;;;;;;8.65;5.60;;;23.60;46.10;;;;;;5011779;28;20084;-87
2022/05/05 09:08:27;;;;;;;10.95;6.05;;;23.60;45.60;;;;;;5012780;28;20510;-84
2022/05/05 09:10:54;;;;;;;11.23;6.40;;;23.30;46.30;;;;;;5012724;28;20054;-85
2022/05/05 09:13:44;;;;;;;9.13;5.65;;;23.00;46.70;;;;;;4995085;28;20496;-84
2022/05/05 09:16:22;;;;;;;8.73;5.80;;;22.90;46.80;;;;;;4994498;28;20061;-83
2022/05/05 09:18:48;;;;;;;15.70;6.13;;;23.50;46.40;;;;;;4994979;28;20125;-84
2022/05/05 09:21:13;;;;;;;9.30;5.97;;;23.90;46.10;;;;;;5012409;28;20133;-85
2022/05/05 09:26:27;;;;;;;10.00;6.65;;;24.10;45.50;;;;;;5012281;28;20057;-85
2022/05/05 09:28:54;;;;;;;10.18;6.47;;;24.00;45.70;;;;;;5012483;28;20053;-84
2022/05/05 09:31:21;;;;;;;13.15;6.72;;;24.00;45.60;;;;;;5012199;28;20446;-84
2022/05/05 09:33:47;;;;;;;9.65;5.50;;;24.20;44.30;;;;;;5012704;28;20102;-85
2022/05/05 09:36:25;;;;;;;9.48;5.95;;;24.40;45.30;;;;;;4999092;28;20119;-84
2022/05/05 09:39:04;;;;;;;9.93;5.85;;;24.70;44.70;;;;;;4998548;28;20496;-85
2022/05/05 09:41:42;;;;;;;9.18;5.60;;;25.00;44.40;;;;;;4998410;28;20060;-84
2022/05/05 09:44:16;;;;;;;9.65;6.63;;;25.20;44.50;;;;;;5016397;28;20058;-85
2022/05/05 09:46:45;;;;;;;10.75;6.47;;;25.30;43.10;;;;;;5016437;28;20061;-85
2022/05/05 09:49:16;;;;;;;7.15;5.82;;;25.10;43.10;;;;;;5016169;28;20500;-84
2022/05/05 09:57:39;;;;;;;8.07;6.25;;;25.10;44.10;;;;;;5016151;28;20050;-84
2022/05/05 09:57:41;;;;;;;6.32;4.95;;;26.40;42.80;;;;;;4999443;28;20050;-84
2022/05/05 10:05:59;;;;;;;8.00;5.72;;;27.70;39.20;;;;;;4998688;28;20061;-84
2022/05/05 10:08:40;;;;;;;9.02;5.70;;;27.50;39.40;;;;;;5013852;28;20050;-85
2022/05/05 10:11:09;;;;;;;10.02;6.30;;;27.30;39.60;;;;;;4998723;28;20046;-85
2022/05/05 10:13:38;;;;;;;7.07;5.30;;;27.40;38.90;;;;;;4998584;28;20054;-85
2022/05/05 10:16:05;;;;;;;9.48;6.22;;;27.60;40.30;;;;;;4982240;28;20435;-84
2022/05/05 10:18:38;;;;;;;8.52;5.90;;;27.60;39.90;;;;;;5017294;28;20042;-84
2022/05/05 10:21:14;;;;;;;7.50;5.32;;;27.60;39.70;;;;;;5015686;28;20049;-84
2022/05/05 10:24:29;;;;;;;9.35;5.88;;;27.80;40.00;;;;;;5015962;28;20068;-83
2022/05/05 10:26:58;;;;;;;10.63;5.95;;;28.00;40.00;;;;;;5023413;28;20054;-84
2022/05/05 10:29:32;;;;;;;10.38;5.93;;;28.10;39.10;;;;;;5035276;28;20042;-86
2022/05/05 10:32:28;;;;;;;8.63;5.78;;;28.00;38.60;;;;;;5018199;28;20049;-85
2022/05/05 10:35:11;;;;;;;9.98;6.53;;;28.00;38.60;;;;;;5016378;28;20061;-85
2022/05/05 10:37:38;;;;;;;12.10;5.78;;;28.00;37.70;;;;;;5017879;28;20049;-85
2022/05/05 10:40:08;;;;;;;8.38;6.30;;;27.90;37.80;;;;;;5017476;28;20099;-88
2022/05/05 10:42:43;;;;;;;11.25;6.95;;;27.40;38.10;;;;;;5017607;28;20049;-85
2022/05/05 10:45:12;;;;;;;8.27;6.22;;;27.10;39.00;;;;;;5034969;28;20053;-84
2022/05/05 10:48:08;;;;;;;9.68;6.53;;;26.90;39.40;;;;;;5016959;28;20049;-85
2022/05/05 10:50:54;;;;;;;10.75;6.22;;;27.10;38.40;;;;;;5016624;28;20439;-90
2022/05/05 10:53:31;;;;;;;9.40;6.45;;;26.90;38.60;;;;;;5035501;28;20096;-84
2022/05/05 10:56:00;;;;;;;10.00;6.40;;;26.50;38.70;;;;;;5034504;28;20053;-85
2022/05/05 10:59:06;;;;;;;9.45;5.88;;;26.00;41.10;;;;;;5017633;28;20059;-86
2022/05/05 11:01:44;;;;;;;11.82;6.28;;;25.70;41.50;;;;;;5017363;28;20057;-86
2022/05/05 11:04:15;;;;;;;9.77;6.20;;;25.60;42.40;;;;;;5033810;28;20187;-83
2022/05/05 11:06:42;;;;;;;7.47;5.70;;;25.60;40.90;;;;;;5017247;28;20486;-85
2022/05/05 11:09:09;;;;;;;8.60;5.47;;;25.90;40.50;;;;;;5016910;28;20041;-84
2022/05/05 11:11:41;;;;;;;11.15;5.85;;;26.40;40.10;;;;;;5034848;28;20045;-85
2022/05/05 11:23:06;;;;;;;6.80;5.45;;;26.00;40.20;;;;;;5017088;28;20483;-85
2022/05/05 11:25:33;;;;;;;13.02;6.07;;;25.90;40.60;;;;;;5017134;28;20399;-85
2022/05/05 11:27:58;;;;;;;8.48;5.38;;;26.30;39.90;;;;;;5016593;28;20577;-85
2022/05/05 11:30:24;;;;;;;7.63;5.20;;;26.50;41.10;;;;;;5015587;28;20057;-85
2022/05/05 11:32:50;;;;;;;8.10;5.40;;;26.60;39.90;;;;;;5000501;28;20060;-86
2022/05/05 11:35:21;;;;;;;9.48;5.65;;;26.30;39.60;;;;;;5016871;28;20045;-86
2022/05/05 11:37:47;;;;;;;8.88;5.80;;;26.00;40.20;;;;;;5016727;28;20049;-85
2022/05/05 11:40:13;;;;;;;8.10;5.20;;;25.50;40.60;;;;;;4999792;28;20106;-85
2022/05/05 11:45:34;;;;;;;8.15;5.35;;;24.80;41.60;;;;;;5016453;28;20089;-85
2022/05/05 11:48:15;;;;;;;6.75;5.40;;;24.70;41.50;;;;;;5026532;28;20057;-85
2022/05/05 11:50:47;;;;;;;7.80;5.60;;;25.00;40.70;;;;;;5053884;28;20057;-86
2022/05/05 11:53:15;;;;;;;7.35;4.85;;;25.30;40.80;;;;;;5036526;28;20052;-87
2022/05/05 11:55:44;;;;;;;6.43;5.45;;;25.70;41.00;;;;;;5036069;28;20052;-85
2022/05/05 12:04:01;;;;;;;9.20;5.03;;;26.80;39.50;;;;;;5052823;28;20052;-86
2022/05/05 12:06:28;;;;;;;8.02;4.85;;;27.00;39.10;;;;;;5038870;28;20475;-83
2022/05/05 12:08:55;;;;;;;12.27;5.20;;;27.00;39.20;;;;;;5053731;28;20052;-87
2022/05/05 12:11:21;;;;;;;5.63;4.70;;;26.90;39.20;;;;;;5035788;28;20044;-84
2022/05/05 12:13:49;;;;;;;8.13;5.28;;;26.80;39.70;;;;;;5051523;28;20461;-84
2022/05/05 12:16:18;;;;;;;8.55;5.93;;;27.10;38.80;;;;;;5035679;28;20072;-86
2022/05/05 12:18:53;;;;;;;11.85;10.48;;;27.20;38.00;;;;;;5053631;28;20514;-85
2022/05/05 12:21:23;;;;;;;8.90;5.32;;;27.30;38.00;;;;;;5035974;28;20491;-87
2022/05/05 12:23:58;;;;;;;8.10;5.40;;;27.10;38.40;;;;;;5053300;28;20045;-85
2022/05/05 12:26:32;;;;;;;8.35;4.90;;;27.50;39.80;;;;;;5035722;28;20103;-84
2022/05/05 12:28:59;;;;;;;8.60;5.80;;;28.30;38.40;;;;;;5018923;28;20079;-86
2022/05/05 12:31:28;;;;;;;8.95;6.03;;;28.00;37.70;;;;;;5052953;28;20126;-85
2022/05/05 12:33:54;;;;;;;8.65;5.97;;;27.10;38.70;;;;;;5035603;28;20071;-84
2022/05/05 12:36:28;;;;;;;10.75;6.20;;;26.30;39.80;;;;;;5019178;28;20403;-84
2022/05/05 12:39:13;;;;;;;12.32;5.47;;;25.70;40.20;;;;;;5052998;28;20037;-86
2022/05/05 12:41:56;;;;;;;9.30;6.53;;;25.30;43.00;;;;;;5053452;28;20053;-84
2022/05/05 12:44:22;;;;;;;13.70;5.80;;;24.60;42.60;;;;;;5053529;28;20430;-84
2022/05/05 12:46:51;;;;;;;13.43;6.72;;;24.10;43.70;;;;;;5020802;28;20049;-85
2022/05/05 12:49:36;;;;;;;11.20;6.43;;;23.80;44.10;;;;;;5035356;28;20057;-85
2022/05/05 12:52:04;;;;;;;13.93;6.55;;;23.80;44.90;;;;;;5035366;28;20403;-85
2022/05/05 12:59:58;;;;;;;12.48;6.70;;;25.20;42.30;;;;;;5034623;28;20057;-85
2022/05/05 13:02:24;;;;;;;9.32;6.75;;;25.40;41.50;;;;;;5018954;28;20364;-87
2022/05/05 13:04:50;;;;;;;9.73;6.97;;;25.40;41.80;;;;;;5034014;28;20544;-85
2022/05/05 13:07:16;;;;;;;12.35;6.45;;;25.80;41.40;;;;;;5052797;28;20049;-85
2022/05/05 13:09:42;;;;;;;11.13;6.88;;;26.80;40.90;;;;;;5034656;28;20479;-86
2022/05/05 13:12:08;;;;;;;9.10;6.13;;;27.30;39.70;;;;;;5034998;28;20398;-89
2022/05/05 13:14:35;;;;;;;7.45;5.78;;;26.60;38.90;;;;;;5051528;28;20053;-86
2022/05/05 13:17:01;;;;;;;10.38;6.70;;;25.60;39.70;;;;;;5035097;28;20057;-85
2022/05/05 13:19:29;;;;;;;9.63;7.30;;;24.50;41.10;;;;;;5052062;28;20048;-87
2022/05/05 13:21:55;;;;;;;10.77;6.93;;;23.60;43.00;;;;;;5034710;28;20053;-87
2022/05/05 13:24:24;;;;;;;10.10;6.82;;;22.90;44.40;;;;;;5035035;28;20549;-87
2022/05/05 13:26:50;;;;;;;8.95;6.30;;;22.40;45.30;;;;;;5035243;28;20045;-88
2022/05/05 13:29:16;;;;;;;10.20;6.57;;;22.00;46.10;;;;;;5052430;28;20052;-86
2022/05/05 13:31:41;;;;;;;8.13;5.40;;;21.90;46.90;;;;;;5034711;28;20048;-86
2022/05/05 13:34:08;;;;;;;9.90;5.90;;;21.70;47.70;;;;;;5019319;28;20053;-87
2022/05/05 13:36:35;;;;;;;10.20;5.57;;;21.70;47.00;;;;;;5053453;28;20049;-87
2022/05/05 13:39:02;;;;;;;8.45;5.78;;;21.70;47.70;;;;;;5034726;28;20080;-85
2022/05/05 13:41:27;;;;;;;8.65;6.30;;;21.80;47.70;;;;;;5052326;28;20047;-85
2022/05/05 13:43:53;;;;;;;8.60;5.63;;;22.40;47.20;;;;;;5034845;28;20132;-86
2022/05/05 13:46:19;;;;;;;6.82;5.65;;;22.90;46.90;;;;;;5052105;28;20056;-87